Time;durP1;ratioP1;P1;durP2;ratioP2;P2;SDS_P1;SDS_P2;PMS_P1;PMS_P2;Temp;Humidity;BMP_temperature;BMP_pressure;BME280_temperature;BME280_humidity;BME280_pressure;Samples;Min_cycle;Max_cycle;Signal;HPM_P1;HPM_P2
2022/07/01 00:01:57;;;;;;;4.95;1.70;;;;;;;14.41;100.00;101230.69;10426532;28;20041;-67
2022/07/01 00:06:57;;;;;;;9.18;2.40;;;;;;;14.44;100.00;101243.16;10409532;28;20285;-68
2022/07/01 00:11:58;;;;;;;7.63;1.52;;;;;;;14.37;100.00;101239.81;10433354;28;20493;-67
2022/07/01 00:16:58;;;;;;;9.60;1.60;;;;;;;14.39;100.00;101237.63;10410204;28;20048;-67
2022/07/01 00:21:59;;;;;;;8.20;1.63;;;;;;;14.37;100.00;101259.22;10413422;28;20409;-68
2022/07/01 00:26:59;;;;;;;8.05;1.67;;;;;;;14.38;100.00;101267.22;10435793;28;20517;-67
2022/07/01 00:32:00;;;;;;;10.30;1.73;;;;;;;14.46;100.00;101272.25;10412519;28;20045;-69
2022/07/01 00:37:00;;;;;;;3.85;1.80;;;;;;;14.47;100.00;101250.91;10412213;28;20041;-66
2022/07/01 00:42:03;;;;;;;6.05;1.55;;;;;;;14.37;100.00;101221.25;10442298;28;21062;-67
2022/07/01 00:47:04;;;;;;;5.35;2.20;;;;;;;14.37;100.00;101248.97;10385594;28;20038;-68
2022/07/01 00:52:05;;;;;;;7.15;1.60;;;;;;;14.32;100.00;101258.09;10426681;28;20101;-68
2022/07/01 00:57:08;;;;;;;5.95;1.92;;;;;;;14.30;100.00;101271.38;10368603;28;20037;-68
2022/07/01 01:02:08;;;;;;;5.85;1.58;;;;;;;14.40;100.00;101276.09;10410525;28;20056;-68
2022/07/01 01:07:09;;;;;;;3.47;1.45;;;;;;;14.43;100.00;101291.38;10440804;28;20052;-68
2022/07/01 01:12:11;;;;;;;5.75;2.45;;;;;;;14.45;100.00;101301.06;10408799;28;20083;-67
2022/07/01 01:17:12;;;;;;;5.57;1.92;;;;;;;14.42;100.00;101320.16;10393593;28;20045;-67
2022/07/01 01:22:14;;;;;;;11.63;6.85;;;;;;;14.48;100.00;101302.47;10440749;28;20040;-68
2022/07/01 01:27:16;;;;;;;17.98;10.63;;;;;;;14.48;100.00;101303.28;10407432;28;20051;-67
2022/07/01 01:32:16;;;;;;;24.77;16.27;;;;;;;14.46;100.00;101301.91;10409635;28;20495;-67
2022/07/01 01:37:17;;;;;;;14.60;10.05;;;;;;;14.45;100.00;101284.44;10439602;28;20041;-68
2022/07/01 01:42:17;;;;;;;9.90;5.80;;;;;;;14.47;100.00;101286.94;10409127;28;20120;-67
2022/07/01 01:47:18;;;;;;;4.45;2.63;;;;;;;14.43;100.00;101285.84;10441620;28;20026;-67
2022/07/01 01:52:19;;;;;;;4.10;1.90;;;;;;;14.48;100.00;101272.81;10440965;28;20025;-67
2022/07/01 01:57:19;;;;;;;3.63;1.63;;;;;;;14.50;100.00;101275.31;10408065;28;20040;-67
2022/07/01 02:02:19;;;;;;;5.18;1.30;;;;;;;14.47;100.00;101284.16;10422955;28;20029;-67
2022/07/01 02:07:20;;;;;;;7.25;2.92;;;;;;;14.53;100.00;101291.38;10405349;28;20049;-67
2022/07/01 02:12:20;;;;;;;7.80;4.63;;;;;;;14.54;100.00;101304.16;10407881;28;20095;-67
2022/07/01 02:17:21;;;;;;;17.75;5.43;;;;;;;14.48;100.00;101294.16;10410073;28;20041;-67
2022/07/01 02:22:21;;;;;;;5.72;2.10;;;;;;;14.57;100.00;101303.63;10406670;28;20025;-67
2022/07/01 02:27:22;;;;;;;4.22;1.98;;;;;;;14.58;100.00;101324.69;10423061;28;20046;-67
2022/07/01 02:32:23;;;;;;;4.43;2.03;;;;;;;14.58;100.00;101335.78;10398086;28;20042;-67
2022/07/01 02:37:23;;;;;;;2.13;1.65;;;;;;;14.54;100.00;101343.75;10366656;28;20034;-68
2022/07/01 02:42:25;;;;;;;3.70;1.60;;;;;;;14.46;100.00;101337.91;10367865;28;20042;-67
2022/07/01 02:47:33;;;;;;;2.72;1.30;;;;;;;14.30;100.00;101343.38;10367989;28;20062;-67
2022/07/01 02:52:34;;;;;;;3.63;1.55;;;;;;;14.35;100.00;101347.28;10429793;28;20452;-67
2022/07/01 02:57:35;;;;;;;5.25;1.58;;;;;;;14.29;100.00;101340.88;10430344;28;20041;-68
2022/07/01 03:02:35;;;;;;;4.20;1.63;;;;;;;14.26;100.00;101347.78;10413694;28;20037;-66
2022/07/01 03:07:36;;;;;;;2.20;1.40;;;;;;;14.26;100.00;101342.25;10412204;28;20103;-67
2022/07/01 03:12:39;;;;;;;3.28;1.48;;;;;;;14.20;100.00;101348.84;10414066;28;20033;-67
2022/07/01 03:17:44;;;;;;;4.95;1.48;;;;;;;14.17;100.00;101327.22;10413887;28;20041;-67
2022/07/01 03:22:45;;;;;;;4.30;1.93;;;;;;;14.11;100.00;101333.81;10373296;28;20038;-66
2022/07/01 03:27:47;;;;;;;3.97;2.10;;;;;;;14.05;100.00;101348.72;10369742;28;20038;-67
2022/07/01 03:32:48;;;;;;;5.78;2.20;;;;;;;13.99;100.00;101336.78;10388163;28;20464;-67
2022/07/01 03:37:49;;;;;;;5.90;1.98;;;;;;;14.01;100.00;101366.97;10372691;28;20060;-67
2022/07/01 03:42:49;;;;;;;4.65;1.98;;;;;;;14.00;100.00;101376.41;10374792;28;20042;-67
2022/07/01 03:47:50;;;;;;;6.75;2.38;;;;;;;14.03;100.00;101392.47;10371728;28;20053;-67
2022/07/01 03:54:29;;;;;;;6.82;2.88;;;;;;;14.06;100.00;101391.94;10374569;28;20045;-68
2022/07/01 03:58:11;;;;;;;5.70;3.47;;;;;;;14.08;100.00;101395.28;10372350;28;20049;-67
2022/07/01 04:03:12;;;;;;;8.02;3.50;;;;;;;14.11;100.00;101378.94;10372353;28;20037;-67
2022/07/01 04:08:14;;;;;;;6.93;3.70;;;;;;;14.17;100.00;101377.06;10339417;28;20434;-67
2022/07/01 04:13:14;;;;;;;6.63;4.13;;;;;;;14.17;100.00;101385.38;10330674;28;20042;-67
2022/07/01 04:18:15;;;;;;;6.68;4.13;;;;;;;14.22;100.00;101396.50;10329651;28;20046;-67
2022/07/01 04:23:15;;;;;;;7.75;4.00;;;;;;;14.26;100.00;101413.41;10353589;28;20038;-67
2022/07/01 04:28:16;;;;;;;6.28;4.05;;;;;;;14.30;100.00;101420.94;10370743;28;20086;-67
2022/07/01 04:33:16;;;;;;;7.05;4.22;;;;;;;14.32;100.00;101432.56;10371104;28;20501;-68
2022/07/01 04:38:16;;;;;;;9.80;4.60;;;;;;;14.30;100.00;101434.78;10370599;28;20048;-68
2022/07/01 04:43:17;;;;;;;6.05;4.50;;;;;;;14.30;100.00;101443.09;10370129;28;20034;-67
2022/07/01 04:48:18;;;;;;;14.23;6.15;;;;;;;14.31;100.00;101455.81;10371129;28;20643;-66
2022/07/01 04:53:18;;;;;;;11.25;7.20;;;;;;;14.35;100.00;101466.38;10371365;28;20042;-67
2022/07/01 04:58:19;;;;;;;10.75;7.78;;;;;;;14.04;100.00;101411.59;10343118;28;20039;-67
2022/07/01 05:03:19;;;;;;;12.05;9.18;;;;;;;14.41;100.00;101459.78;10386025;28;20065;-67
2022/07/01 05:08:19;;;;;;;16.40;10.60;;;;;;;14.46;100.00;101468.13;10335797;28;20035;-67
2022/07/01 05:13:20;;;;;;;19.30;12.35;;;;;;;14.43;100.00;101469.50;10327661;28;20081;-67
2022/07/01 05:23:39;;;;;;;24.73;15.43;;;;;;;14.52;100.00;101476.19;10409900;28;20030;-67
2022/07/01 05:28:40;;;;;;;28.75;19.30;;;;;;;14.54;100.00;101475.94;10409205;28;20046;-67
2022/07/01 05:33:40;;;;;;;34.00;20.23;;;;;;;14.55;100.00;101483.13;10441079;28;20045;-67
2022/07/01 05:38:41;;;;;;;34.65;20.80;;;;;;;14.57;100.00;101486.50;10410657;28;20033;-67
2022/07/01 05:43:41;;;;;;;33.15;22.17;;;;;;;14.55;100.00;101488.66;10409184;28;20045;-67
2022/07/01 05:48:42;;;;;;;35.05;22.08;;;;;;;14.63;100.00;101490.16;10406791;28;20041;-68
2022/07/01 05:53:43;;;;;;;40.88;23.80;;;;;;;14.78;100.00;101486.63;10408013;28;20506;-67
2022/07/01 05:58:43;;;;;;;39.83;24.42;;;;;;;14.82;100.00;101477.53;10407483;28;20045;-67
2022/07/01 06:03:44;;;;;;;37.92;23.38;;;;;;;14.82;100.00;101494.19;10407036;28;20029;-67
2022/07/01 06:08:44;;;;;;;37.03;23.27;;;;;;;14.86;100.00;101494.44;10403991;28;20076;-67
2022/07/01 06:13:45;;;;;;;36.13;22.73;;;;;;;14.92;100.00;101499.78;10366496;28;20501;-67
2022/07/01 06:18:45;;;;;;;32.83;22.27;;;;;;;15.01;100.00;101491.78;10388479;28;20538;-67
2022/07/01 06:23:46;;;;;;;33.47;22.05;;;;;;;15.09;100.00;101498.75;10405559;28;20048;-67
2022/07/01 06:28:46;;;;;;;34.10;21.83;;;;;;;15.15;100.00;101478.25;10406848;28;20072;-67
2022/07/01 06:33:47;;;;;;;33.40;22.20;;;;;;;15.16;100.00;101481.88;10406671;28;20406;-66
2022/07/01 06:38:48;;;;;;;33.15;22.98;;;;;;;15.16;100.00;101479.09;10404843;28;20041;-66
2022/07/01 06:43:48;;;;;;;37.13;23.33;;;;;;;15.13;100.00;101467.44;10407002;28;20033;-67
2022/07/01 06:48:49;;;;;;;37.97;22.98;;;;;;;15.32;100.00;101461.41;10406657;28;20056;-67
2022/07/01 06:53:49;;;;;;;34.10;24.33;;;;;;;15.62;100.00;101470.94;10408606;28;20038;-67
2022/07/01 06:58:50;;;;;;;31.55;21.90;;;;;;;15.66;100.00;101474.81;10408409;28;20481;-67
2022/07/01 07:03:50;;;;;;;29.13;22.00;;;;;;;15.81;100.00;101472.09;10408374;28;20029;-67
2022/07/01 07:08:51;;;;;;;28.10;20.50;;;;;;;16.06;100.00;101465.75;10419566;28;20063;-67
2022/07/01 07:13:51;;;;;;;28.35;21.38;;;;;;;16.38;100.00;101469.38;10424500;28;20489;-68
2022/07/01 07:18:52;;;;;;;31.23;19.92;;;;;;;16.58;100.00;101480.47;10420274;28;20108;-67
2022/07/01 07:23:52;;;;;;;29.48;20.23;;;;;;;16.69;100.00;101464.59;10420490;28;20076;-68
2022/07/01 07:28:53;;;;;;;25.67;18.50;;;;;;;16.96;100.00;101483.75;10416757;28;20059;-67
2022/07/01 07:33:53;;;;;;;21.05;16.60;;;;;;;16.99;100.00;101485.13;10414515;28;20048;-67
2022/07/01 07:38:54;;;;;;;22.08;17.80;;;;;;;16.94;100.00;101511.00;10420417;28;20053;-67
2022/07/01 07:43:54;;;;;;;24.65;17.63;;;;;;;16.99;100.00;101519.38;10424631;28;20052;-67
2022/07/01 07:48:55;;;;;;;18.75;16.35;;;;;;;16.92;100.00;101513.25;10424854;28;20038;-67
2022/07/01 07:53:55;;;;;;;21.40;17.45;;;;;;;17.06;100.00;101513.50;10423018;28;20117;-67
2022/07/01 07:58:56;;;;;;;22.95;17.70;;;;;;;17.05;100.00;101523.78;10421716;28;20101;-67
2022/07/01 08:03:57;;;;;;;19.30;16.77;;;;;;;17.00;100.00;101523.78;10431574;28;20240;-67
2022/07/01 08:08:57;;;;;;;22.52;19.77;;;;;;;16.89;100.00;101550.81;10428332;28;20087;-67
2022/07/01 08:13:58;;;;;;;25.77;18.25;;;;;;;16.99;100.00;101546.31;10416463;28;20041;-67
2022/07/01 08:18:58;;;;;;;22.90;16.15;;;;;;;17.12;100.00;101552.13;10388820;28;20046;-67
2022/07/01 08:23:59;;;;;;;23.52;17.33;;;;;;;17.21;100.00;101546.81;10369671;28;20045;-67
2022/07/01 08:28:59;;;;;;;22.55;15.40;;;;;;;17.40;100.00;101558.16;10367821;28;20057;-67
2022/07/01 08:34:02;;;;;;;17.77;13.65;;;;;;;17.67;100.00;101551.38;10370170;28;20054;-66
2022/07/01 08:39:03;;;;;;;18.35;15.05;;;;;;;17.75;100.00;101536.84;10369520;28;20037;-66
2022/07/01 08:44:03;;;;;;;16.75;13.10;;;;;;;18.12;100.00;101555.06;10367351;28;20037;-67
2022/07/01 08:49:04;;;;;;;16.38;13.88;;;;;;;18.23;100.00;101565.03;10366482;28;20073;-67
2022/07/01 08:54:04;;;;;;;17.08;13.60;;;;;;;18.10;100.00;101585.16;10368429;28;20034;-66
2022/07/01 08:59:06;;;;;;;22.98;13.50;;;;;;;17.92;100.00;101567.16;10369697;28;20034;-67
2022/07/01 09:04:17;;;;;;;17.85;13.63;;;;;;;17.69;100.00;101554.72;10370324;28;20140;-66
2022/07/01 09:09:20;;;;;;;15.55;13.15;;;;;;;17.77;100.00;101550.50;10422781;28;20044;-65
2022/07/01 09:14:22;;;;;;;16.17;14.05;;;;;;;17.79;100.00;101542.69;10428721;28;20037;-67
2022/07/01 09:19:22;;;;;;;14.88;12.55;;;;;;;18.14;100.00;101562.00;10395550;28;20041;-67
2022/07/01 09:24:26;;;;;;;15.40;13.43;;;;;;;18.59;100.00;101584.28;10368340;28;20248;-68
2022/07/01 09:29:34;;;;;;;15.38;9.27;;;;;;;18.77;100.00;101563.22;10369174;28;20113;-66
2022/07/01 09:34:42;;;;;;;12.88;9.20;;;;;;;19.06;100.00;101593.94;10367762;28;20098;-66
2022/07/01 09:39:49;;;;;;;10.40;9.40;;;;;;;19.49;100.00;101595.97;10366823;28;20405;-67
2022/07/01 09:44:57;;;;;;;11.52;9.15;;;;;;;19.47;100.00;101590.69;10367060;28;20046;-63
2022/07/01 09:49:57;;;;;;;14.10;9.38;;;;;;;19.86;100.00;101598.03;10396821;28;20046;-66
2022/07/01 09:54:58;;;;;;;13.80;7.97;;;;;;;19.90;100.00;101601.91;10367082;28;20038;-65
2022/07/01 09:59:58;;;;;;;10.30;6.47;;;;;;;19.54;100.00;101610.72;10364858;28;20065;-62
2022/07/01 10:05:02;;;;;;;8.88;6.35;;;;;;;19.70;100.00;101602.13;10364641;28;20061;-65
2022/07/01 10:10:33;;;;;;;11.57;5.80;;;;;;;20.09;100.00;101615.06;10365021;28;20065;-65
2022/07/01 10:15:34;;;;;;;8.35;5.22;;;;;;;20.00;100.00;101611.31;10437653;28;20048;-62
2022/07/01 10:20:36;;;;;;;6.72;4.93;;;;;;;20.35;100.00;101610.78;10403846;28;20048;-61
2022/07/01 10:25:47;;;;;;;8.55;5.07;;;;;;;20.19;100.00;101592.56;10438643;28;20109;-65
2022/07/01 10:31:02;;;;;;;10.20;5.40;;;;;;;20.31;100.00;101620.91;10421824;28;20513;-66
2022/07/01 10:36:26;;;;;;;6.57;5.22;;;;;;;20.42;100.00;101606.78;10405549;28;20049;-67
2022/07/01 10:41:31;;;;;;;7.63;5.10;;;;;;;20.73;100.00;101595.94;10405743;28;20037;-64
2022/07/01 10:46:49;;;;;;;9.88;5.88;;;;;;;21.08;100.00;101580.47;10437444;28;20124;-65
2022/07/01 10:51:53;;;;;;;6.43;4.30;;;;;;;21.07;100.00;101590.03;10365798;28;20402;-64
2022/07/01 10:56:54;;;;;;;6.55;3.92;;;;;;;21.55;100.00;101569.25;10404899;28;20040;-65
2022/07/01 11:01:54;;;;;;;6.00;3.45;;;;;;;21.27;99.91;101582.38;10436137;28;20037;-68
2022/07/01 11:06:54;;;;;;;8.25;3.70;;;;;;;20.74;100.00;101576.06;10405703;28;20404;-65
2022/07/01 11:11:55;;;;;;;8.23;4.45;;;;;;;20.79;100.00;101583.53;10411910;28;20052;-64
2022/07/01 11:16:57;;;;;;;6.18;4.35;;;;;;;20.75;100.00;101577.75;10414650;28;20048;-65
2022/07/01 11:21:57;;;;;;;7.60;3.97;;;;;;;20.99;100.00;101582.34;10407553;28;20045;-65
2022/07/01 11:27:06;;;;;;;5.50;3.72;;;;;;;21.30;100.00;101576.16;10412618;28;20033;-65
2022/07/01 11:32:07;;;;;;;4.55;3.05;;;;;;;21.82;93.96;101548.75;10371983;28;20042;-65
2022/07/01 11:42:29;;;;;;;6.07;3.30;;;;;;;22.10;93.46;101551.53;10372020;28;20125;-64
2022/07/01 11:47:30;;;;;;;5.85;3.42;;;;;;;22.25;93.85;101553.97;10370969;28;20058;-64
2022/07/01 11:52:31;;;;;;;4.72;3.25;;;;;;;23.06;86.74;101524.97;10371002;28;20486;-63
2022/07/01 11:57:32;;;;;;;7.20;3.20;;;;;;;22.91;87.71;101550.66;10371069;28;20046;-63
2022/07/01 12:02:32;;;;;;;10.80;3.80;;;;;;;23.25;83.31;101543.56;10371412;28;20038;-64
2022/07/01 12:07:33;;;;;;;8.13;2.92;;;;;;;24.32;82.75;101534.66;10370225;28;20137;-63
2022/07/01 12:12:33;;;;;;;4.60;2.47;;;;;;;25.45;75.14;101529.94;10370159;28;20050;-64
2022/07/01 12:17:34;;;;;;;5.38;1.95;;;;;;;25.89;73.54;101534.16;10360047;28;20046;-64
2022/07/01 12:22:34;;;;;;;4.28;2.05;;;;;;;25.41;73.91;101526.97;10360120;28;20042;-64
2022/07/01 12:27:35;;;;;;;5.25;2.28;;;;;;;24.37;76.29;101540.16;10329567;28;20049;-64
2022/07/01 12:32:37;;;;;;;4.10;1.10;;;;;;;22.77;77.59;101568.38;10415359;28;20041;-64
2022/07/01 12:37:37;;;;;;;3.53;1.00;;;;;;;21.25;84.43;101590.25;10410597;28;20037;-64
2022/07/01 12:42:43;;;;;;;5.57;1.38;;;;;;;20.76;89.49;101601.78;10409887;28;20045;-64
2022/07/01 12:47:47;;;;;;;9.35;1.80;;;;;;;20.33;94.39;101604.66;10407244;28;20391;-64
2022/07/01 12:53:02;;;;;;;6.38;1.48;;;;;;;19.75;97.94;101611.31;10408087;28;20060;-65
2022/07/01 12:58:03;;;;;;;3.53;1.40;;;;;;;19.84;98.71;101600.31;10409830;28;20041;-65
2022/07/01 13:03:04;;;;;;;6.30;1.30;;;;;;;20.60;100.00;101603.16;10409131;28;20037;-65
2022/07/01 13:08:05;;;;;;;3.53;1.10;;;;;;;22.51;92.31;101575.78;10409754;28;20041;-65
2022/07/01 13:13:05;;;;;;;3.65;1.13;;;;;;;23.03;85.69;101556.53;10407453;28;20038;-64
2022/07/01 13:18:06;;;;;;;8.18;1.20;;;;;;;23.18;84.56;101566.50;10407969;28;20103;-65
2022/07/01 13:23:06;;;;;;;3.05;1.25;;;;;;;24.42;80.40;101570.09;10411636;28;20029;-64
2022/07/01 13:28:07;;;;;;;2.88;0.52;;;;;;;25.67;71.12;101540.06;10427053;28;20045;-65
2022/07/01 13:33:07;;;;;;;3.97;0.50;;;;;;;24.62;68.06;101546.09;10424918;28;20072;-65
2022/07/01 13:38:08;;;;;;;3.72;0.50;;;;;;;24.27;73.26;101548.09;10422388;28;20053;-65
2022/07/01 13:43:08;;;;;;;3.90;0.70;;;;;;;23.54;69.69;101563.53;10408409;28;20099;-64
2022/07/01 13:48:09;;;;;;;4.13;0.57;;;;;;;23.76;69.13;101570.19;10404168;28;20087;-64
2022/07/01 13:53:09;;;;;;;7.82;0.65;;;;;;;23.27;76.72;101612.31;10406173;28;20046;-63
2022/07/01 13:58:10;;;;;;;2.63;0.68;;;;;;;23.26;72.58;101596.63;10407233;28;20209;-64
2022/07/01 14:03:10;;;;;;;1.98;0.60;;;;;;;22.58;72.76;101609.88;10408017;28;20044;-63
2022/07/01 14:08:11;;;;;;;4.80;1.35;;;;;;;22.87;78.27;101637.50;10407637;28;20056;-64
2022/07/01 14:13:11;;;;;;;3.00;0.68;;;;;;;23.56;69.91;101614.63;10407500;28;20034;-65
2022/07/01 14:18:12;;;;;;;3.63;0.40;;;;;;;24.84;64.58;101600.56;10404521;28;20033;-64
2022/07/01 14:23:12;;;;;;;2.35;0.40;;;;;;;25.24;62.92;101594.66;10374674;28;20049;-64
2022/07/01 14:28:13;;;;;;;3.35;0.55;;;;;;;24.72;64.24;101609.66;10402298;28;20037;-65
2022/07/01 14:33:14;;;;;;;5.40;0.90;;;;;;;23.59;64.63;101615.13;10406261;28;20034;-66
2022/07/01 14:38:15;;;;;;;4.65;0.75;;;;;;;22.96;69.61;101626.31;10406382;28;20076;-64
2022/07/01 14:43:15;;;;;;;1.63;0.50;;;;;;;22.67;71.19;101644.44;10407883;28;20045;-65
2022/07/01 14:48:16;;;;;;;4.75;0.80;;;;;;;22.15;73.50;101655.97;10413350;28;20041;-65
2022/07/01 14:53:16;;;;;;;5.32;1.45;;;;;;;23.16;70.89;101637.03;10411159;28;20033;-64
2022/07/01 14:58:17;;;;;;;2.85;0.70;;;;;;;24.38;68.69;101631.03;10414246;28;20049;-66
2022/07/01 15:03:17;;;;;;;4.80;1.00;;;;;;;23.04;68.67;101634.00;10413661;28;20034;-65
2022/07/01 15:08:18;;;;;;;4.25;0.75;;;;;;;21.94;73.04;101661.19;10414320;28;20045;-65
2022/07/01 15:13:18;;;;;;;4.85;0.98;;;;;;;21.05;77.31;101667.91;10413338;28;20118;-65
2022/07/01 15:18:18;;;;;;;3.47;0.70;;;;;;;21.06;80.91;101671.53;10409961;28;20497;-64
2022/07/01 15:23:19;;;;;;;3.50;0.70;;;;;;;23.67;71.07;101632.00;10411545;28;20037;-65
2022/07/01 15:28:20;;;;;;;2.83;0.70;;;;;;;23.69;70.82;101642.91;10410943;28;20095;-67
2022/07/01 15:33:21;;;;;;;7.55;1.80;;;;;;;23.34;73.20;101654.84;10390254;28;20042;-64
2022/07/01 15:38:21;;;;;;;4.20;1.02;;;;;;;24.36;70.49;101645.41;10390057;28;20034;-65
2022/07/01 15:43:22;;;;;;;7.07;0.90;;;;;;;23.52;67.81;101650.13;10387294;28;20034;-66
2022/07/01 15:48:22;;;;;;;4.10;1.25;;;;;;;22.49;70.56;101651.03;10386597;28;20034;-65
2022/07/01 15:53:23;;;;;;;4.38;1.00;;;;;;;23.67;72.77;101662.06;10374290;28;20498;-65
2022/07/01 15:58:23;;;;;;;4.43;1.40;;;;;;;24.96;68.68;101624.06;10388411;28;20042;-65
2022/07/01 16:03:24;;;;;;;6.22;1.80;;;;;;;26.85;62.54;101634.16;10386880;28;20324;-65
2022/07/01 16:08:31;;;;;;;5.03;0.77;;;;;;;27.47;58.13;101621.88;10401252;28;20076;-64
2022/07/01 16:13:31;;;;;;;4.85;1.35;;;;;;;26.41;59.85;101648.63;10384308;28;20042;-66
2022/07/01 16:18:32;;;;;;;7.25;1.33;;;;;;;26.44;58.54;101635.81;10385186;28;20046;-66
2022/07/01 16:23:33;;;;;;;3.33;0.93;;;;;;;25.77;56.17;101646.84;10358351;28;20415;-67
2022/07/01 16:28:34;;;;;;;4.18;1.10;;;;;;;25.79;58.92;101661.44;10359525;28;20083;-66
2022/07/01 16:33:34;;;;;;;4.90;1.08;;;;;;;25.05;58.39;101662.66;10330175;28;20053;-65
2022/07/01 16:39:05;;;;;;;5.63;0.90;;;;;;;23.66;61.08;101677.31;10346279;28;20034;-65
2022/07/01 16:44:12;;;;;;;4.82;0.82;;;;;;;22.48;64.10;101688.69;10367143;28;20041;-66
2022/07/01 16:49:20;;;;;;;5.55;1.08;;;;;;;22.55;67.75;101703.09;10367029;28;20041;-66
2022/07/01 16:54:25;;;;;;;4.65;1.13;;;;;;;22.13;70.46;101707.91;10375622;28;20083;-65
2022/07/01 16:59:27;;;;;;;2.10;0.90;;;;;;;21.91;68.30;101703.03;10339548;28;20494;-65
2022/07/01 17:04:27;;;;;;;5.68;0.80;;;;;;;22.02;73.16;101729.75;10367140;28;20060;-66
2022/07/01 17:09:28;;;;;;;5.70;1.77;;;;;;;21.75;73.55;101727.75;10366723;28;20048;-66
2022/07/01 17:14:29;;;;;;;5.78;1.60;;;;;;;21.23;72.08;101724.16;10365548;28;20037;-66
2022/07/01 17:19:29;;;;;;;3.88;0.93;;;;;;;20.93;73.53;101729.13;10367371;28;20061;-65
2022/07/01 17:24:30;;;;;;;6.88;0.90;;;;;;;20.46;73.86;101730.91;10367901;28;20046;-65
2022/07/01 17:29:35;;;;;;;4.05;0.80;;;;;;;20.24;76.94;101735.09;10368453;28;20068;-65
2022/07/01 17:34:36;;;;;;;2.53;0.75;;;;;;;20.09;78.47;101732.47;10365766;28;20049;-65
2022/07/01 17:39:37;;;;;;;5.32;0.98;;;;;;;19.96;78.50;101746.03;10380777;28;20046;-66
2022/07/01 17:44:37;;;;;;;5.95;0.80;;;;;;;19.86;78.86;101750.91;10364273;28;20040;-66
2022/07/01 17:49:38;;;;;;;4.38;1.15;;;;;;;19.82;81.54;101756.25;10365933;28;20038;-66
2022/07/01 17:54:38;;;;;;;2.80;0.57;;;;;;;19.70;82.34;101766.97;10397802;28;20045;-66
2022/07/01 17:59:39;;;;;;;2.42;0.68;;;;;;;19.43;80.84;101759.97;10382345;28;20046;-66
2022/07/01 18:04:39;;;;;;;3.58;1.23;;;;;;;19.48;79.38;101759.91;10348320;28;20034;-65
2022/07/01 18:09:40;;;;;;;5.13;0.80;;;;;;;19.49;80.55;101769.13;10374324;28;20481;-66
2022/07/01 18:14:52;;;;;;;4.60;0.77;;;;;;;19.51;82.28;101778.03;10364796;28;20544;-66
2022/07/01 18:20:06;;;;;;;3.97;0.70;;;;;;;19.38;85.12;101778.72;10346536;28;20281;-66
2022/07/01 18:25:09;;;;;;;4.07;1.00;;;;;;;19.32;83.45;101789.09;10381583;28;20030;-66
2022/07/01 18:30:11;;;;;;;4.03;0.65;;;;;;;19.05;84.20;101804.34;10356190;28;20070;-63
2022/07/01 18:35:14;;;;;;;1.85;0.50;;;;;;;18.65;84.80;101789.50;10326858;28;20042;-63
2022/07/01 18:40:15;;;;;;;3.28;0.63;;;;;;;18.49;86.97;101796.25;10307134;28;20042;-63
2022/07/01 18:45:15;;;;;;;3.80;0.75;;;;;;;18.38;88.08;101805.81;10324878;28;20030;-63
2022/07/01 18:50:16;;;;;;;4.63;1.10;;;;;;;18.36;89.91;101817.22;10322882;28;20050;-66
2022/07/01 18:55:16;;;;;;;3.08;0.60;;;;;;;18.22;92.38;101821.72;10326145;28;20462;-66
2022/07/01 19:00:21;;;;;;;3.72;0.90;;;;;;;18.12;94.16;101826.19;10324414;28;20035;-64
2022/07/01 19:05:22;;;;;;;4.65;0.80;;;;;;;17.94;98.37;101830.44;10324341;28;20039;-62
2022/07/01 19:10:23;;;;;;;3.92;0.80;;;;;;;17.75;100.00;101843.22;10318396;28;20038;-66
2022/07/01 19:15:23;;;;;;;4.45;1.05;;;;;;;17.60;100.00;101857.16;10293229;28;20043;-65
2022/07/01 19:20:23;;;;;;;5.60;0.85;;;;;;;17.41;100.00;101860.47;10321634;28;20047;-65
2022/07/01 19:25:25;;;;;;;3.70;1.00;;;;;;;17.21;100.00;101868.78;10299370;28;20053;-65
2022/07/01 19:30:26;;;;;;;3.80;0.93;;;;;;;17.03;100.00;101870.97;10322549;28;20094;-66
2022/07/01 19:35:26;;;;;;;4.82;0.85;;;;;;;16.88;100.00;101857.00;10330876;28;20061;-66
2022/07/01 19:40:27;;;;;;;5.20;1.13;;;;;;;16.82;100.00;101878.38;10330395;28;20180;-65
2022/07/01 19:45:27;;;;;;;4.68;1.15;;;;;;;16.68;100.00;101885.53;10330615;28;20100;-67
2022/07/01 19:50:28;;;;;;;7.45;1.92;;;;;;;16.53;100.00;101880.72;10331136;28;20033;-66
2022/07/01 19:55:28;;;;;;;2.63;0.90;;;;;;;16.53;100.00;101895.47;10331697;28;20041;-65
2022/07/01 20:00:29;;;;;;;3.90;0.90;;;;;;;16.42;100.00;101904.03;10330608;28;20037;-64
2022/07/01 20:05:29;;;;;;;5.43;0.90;;;;;;;16.20;100.00;101893.88;10330563;28;20058;-65
2022/07/01 20:10:32;;;;;;;3.65;0.90;;;;;;;16.15;100.00;101910.53;10329360;28;20061;-65
2022/07/01 20:15:33;;;;;;;6.88;1.15;;;;;;;16.06;100.00;101918.50;10314256;28;20047;-65
2022/07/01 20:20:33;;;;;;;3.42;1.80;;;;;;;15.90;100.00;101936.97;10308490;28;20038;-67
2022/07/01 20:25:34;;;;;;;5.07;2.22;;;;;;;15.71;100.00;101938.47;10321850;28;20045;-65
2022/07/01 20:30:34;;;;;;;5.45;1.80;;;;;;;15.52;100.00;101952.69;10329738;28;20046;-66
2022/07/01 20:35:35;;;;;;;3.80;1.40;;;;;;;15.36;100.00;101953.63;10296613;28;20207;-66
2022/07/01 20:40:35;;;;;;;4.63;1.10;;;;;;;15.20;100.00;101955.38;10285420;28;20046;-66
2022/07/01 20:45:36;;;;;;;2.33;0.98;;;;;;;15.04;100.00;101957.13;10316720;28;20053;-66
2022/07/01 20:50:36;;;;;;;1.73;1.13;;;;;;;14.90;100.00;101961.38;10305857;28;20093;-65
2022/07/01 20:55:36;;;;;;;5.32;1.05;;;;;;;14.77;100.00;101970.91;10333604;28;20043;-66
2022/07/01 21:00:37;;;;;;;3.17;1.17;;;;;;;14.42;100.00;101946.25;10328686;28;20053;-66
2022/07/01 21:05:37;;;;;;;3.75;1.42;;;;;;;14.53;100.00;101995.19;10352038;28;20038;-65
2022/07/01 21:10:38;;;;;;;5.78;1.73;;;;;;;14.40;100.00;101996.38;10327685;28;20038;-65
2022/07/01 21:15:38;;;;;;;5.38;1.20;;;;;;;14.35;100.00;102012.09;10359307;28;20038;-66
2022/07/01 21:20:39;;;;;;;1.80;1.02;;;;;;;14.28;100.00;102012.22;10367655;28;20045;-65
2022/07/01 21:25:39;;;;;;;13.23;7.15;;;;;;;14.16;100.00;102006.78;10367175;28;20034;-65
2022/07/01 21:30:40;;;;;;;3.95;1.50;;;;;;;14.06;100.00;102014.94;10365256;28;20125;-67
2022/07/01 21:35:40;;;;;;;5.15;2.10;;;;;;;13.97;100.00;102019.19;10361269;28;20042;-66
2022/07/01 21:40:41;;;;;;;5.28;2.10;;;;;;;13.87;100.00;102015.16;10357417;28;20033;-66
2022/07/01 21:45:42;;;;;;;3.58;1.73;;;;;;;13.91;100.00;102037.59;10375543;28;20046;-66
2022/07/01 21:50:42;;;;;;;5.43;2.58;;;;;;;13.89;100.00;102037.03;10363087;28;20048;-66
2022/07/01 21:55:43;;;;;;;6.50;1.92;;;;;;;13.83;100.00;102035.25;10394665;28;20038;-65
2022/07/01 22:00:43;;;;;;;3.25;1.92;;;;;;;13.75;100.00;102033.72;10378077;28;20046;-66
2022/07/01 22:11:03;;;;;;;4.53;1.80;;;;;;;13.61;100.00;102038.72;10360359;28;20405;-65
2022/07/01 22:16:04;;;;;;;5.25;1.80;;;;;;;13.56;100.00;102043.31;10377738;28;20034;-65
2022/07/01 22:21:10;;;;;;;2.92;1.90;;;;;;;13.44;100.00;102044.19;10365416;28;20046;-65
2022/07/01 22:26:10;;;;;;;5.22;1.80;;;;;;;13.44;100.00;102052.50;10324568;28;20560;-66
2022/07/01 22:31:14;;;;;;;7.18;2.30;;;;;;;13.43;100.00;102053.56;10353885;28;20077;-66
2022/07/01 22:36:14;;;;;;;4.57;2.40;;;;;;;13.37;100.00;102057.31;10377189;28;20046;-66
2022/07/01 22:41:16;;;;;;;3.60;2.42;;;;;;;13.34;100.00;102057.81;10378778;28;20449;-66
2022/07/01 22:46:30;;;;;;;5.22;2.35;;;;;;;13.24;100.00;102049.25;10362934;28;20042;-65
2022/07/01 22:51:34;;;;;;;5.05;2.63;;;;;;;13.24;100.00;102066.69;10364041;28;20045;-65
2022/07/01 22:56:34;;;;;;;4.80;2.05;;;;;;;13.20;100.00;102076.53;10326209;28;20072;-66
2022/07/01 23:01:42;;;;;;;10.35;3.67;;;;;;;13.12;100.00;102075.00;10321372;28;20384;-65
2022/07/01 23:06:59;;;;;;;4.18;3.17;;;;;;;13.04;100.00;102067.09;10331533;28;20458;-66